createdAt,value
2022-09-11T00:02:48.287Z,23.71
2022-09-11T00:09:28.325Z,23.62
2022-09-11T00:12:20.292Z,23.66
2022-09-11T00:15:19.557Z,23.73
2022-09-11T00:17:50.841Z,23.76
2022-09-11T00:20:21.035Z,23.83
2022-09-11T00:26:36.488Z,23.84
2022-09-11T00:34:05.187Z,23.75
2022-09-11T00:37:05.727Z,23.48
2022-09-11T00:39:37.864Z,23.35
2022-09-11T00:42:11.753Z,23.33
2022-09-11T00:45:19.394Z,23.32
2022-09-11T00:48:03.481Z,23.31
2022-09-11T00:51:04.909Z,23.26
2022-09-11T00:58:04.517Z,23.19
2022-09-11T01:01:16.568Z,23.21
2022-09-11T01:04:12.570Z,23.22
2022-09-11T01:10:50.561Z,23.19
2022-09-11T01:18:03.283Z,22.91
2022-09-11T01:21:48.513Z,22.74
2022-09-11T01:24:39.228Z,22.65
2022-09-11T01:27:53.854Z,22.63
2022-09-11T01:31:19.384Z,22.63
2022-09-11T01:34:10.782Z,22.60
2022-09-11T01:36:53.395Z,22.55
2022-09-11T01:39:30.296Z,22.53
2022-09-11T01:42:06.007Z,22.52
2022-09-11T01:44:50.591Z,22.57
2022-09-11T01:47:32.406Z,22.51
2022-09-11T01:50:09.130Z,22.51
2022-09-11T01:56:38.054Z,22.56
2022-09-11T02:02:31.082Z,22.56
2022-09-11T02:05:06.423Z,22.59
2022-09-11T02:07:40.175Z,22.60
2022-09-11T02:10:15.052Z,22.54
2022-09-11T02:12:49.743Z,22.54
2022-09-11T02:15:19.419Z,22.53
2022-09-11T02:17:54.380Z,22.49
2022-09-11T02:20:26.115Z,22.48
2022-09-11T02:22:56.234Z,22.32
2022-09-11T02:25:25.722Z,22.24
2022-09-11T02:27:55.124Z,22.22
2022-09-11T02:30:24.201Z,22.14
2022-09-11T02:32:56.664Z,22.05
2022-09-11T02:35:40.149Z,21.94
2022-09-11T02:38:21.349Z,21.92
2022-09-11T02:41:08.739Z,21.98
2022-09-11T02:43:58.247Z,21.94
2022-09-11T02:46:59.346Z,21.87
2022-09-11T02:49:44.463Z,21.72
2022-09-11T02:52:29.001Z,21.59
2022-09-11T02:55:06.919Z,21.61
2022-09-11T02:57:42.025Z,21.66
2022-09-11T03:00:13.419Z,21.71
2022-09-11T03:02:44.980Z,21.65
2022-09-11T03:05:15.728Z,21.58
2022-09-11T03:07:45.069Z,21.54
2022-09-11T03:10:14.969Z,21.50
2022-09-11T03:12:48.636Z,21.44
2022-09-11T03:15:21.969Z,21.41
2022-09-11T03:17:58.206Z,21.36
2022-09-11T03:20:27.569Z,21.35
2022-09-11T03:22:57.843Z,21.31
2022-09-11T03:25:27.792Z,21.20
2022-09-11T03:27:58.835Z,21.12
2022-09-11T03:30:28.860Z,21.09
2022-09-11T03:33:00.222Z,21.13
2022-09-11T03:35:31.155Z,21.14
2022-09-11T03:38:00.367Z,21.07
2022-09-11T03:40:29.357Z,21.07
2022-09-11T03:42:59.148Z,21.02
2022-09-11T03:45:28.592Z,20.99
2022-09-11T03:47:58.130Z,20.93
2022-09-11T03:50:27.508Z,20.90
2022-09-11T03:52:58.074Z,20.90
2022-09-11T03:55:28.207Z,20.92
2022-09-11T03:57:58.671Z,20.98
2022-09-11T04:00:28.370Z,21.15
2022-09-11T04:02:57.608Z,21.32
2022-09-11T04:05:27.372Z,21.34
2022-09-11T04:07:56.831Z,21.28
2022-09-11T04:11:08.681Z,21.26
2022-09-11T04:13:55.161Z,21.12
2022-09-11T04:16:55.716Z,21.02
2022-09-11T04:19:35.787Z,20.82
2022-09-11T04:22:05.237Z,20.77
2022-09-11T04:24:34.648Z,20.74
2022-09-11T04:27:05.145Z,20.74
2022-09-11T04:29:35.433Z,20.75
2022-09-11T04:32:05.734Z,20.84
2022-09-11T04:34:34.771Z,20.85
2022-09-11T04:37:05.774Z,20.79
2022-09-11T04:39:35.689Z,20.73
2022-09-11T04:42:05.997Z,20.83
2022-09-11T04:44:35.672Z,21.03
2022-09-11T04:47:05.229Z,21.12
2022-09-11T04:49:34.787Z,21.25
2022-09-11T04:52:05.701Z,21.32
2022-09-11T04:54:36.445Z,21.23
2022-09-11T04:57:06.119Z,21.05
2022-09-11T04:59:36.063Z,21.05
